Time;durP1;ratioP1;P1;durP2;ratioP2;P2;SDS_P1;SDS_P2;PMS_P1;PMS_P2;Temp;Humidity;BMP_temperature;BMP_pressure;BME280_temperature;BME280_humidity;BME280_pressure;Samples;Min_cycle;Max_cycle;Signal;HPM_P1;HPM_P2
2023/06/09 00:01:37;;;;;;;8.80;7.15;;;21.30;77.60;;;;;;5063878;28;20025;-55
2023/06/09 00:04:04;;;;;;;8.68;7.10;;;21.30;77.80;;;;;;5063990;28;20079;-54
2023/06/09 00:06:30;;;;;;;9.70;7.65;;;21.30;77.80;;;;;;5063771;28;20025;-55
2023/06/09 00:08:59;;;;;;;8.55;7.38;;;21.30;77.90;;;;;;5062552;28;20037;-56
2023/06/09 00:11:26;;;;;;;12.60;7.53;;;21.20;77.80;;;;;;5063621;28;20064;-55
2023/06/09 00:13:53;;;;;;;10.35;8.13;;;21.20;77.80;;;;;;5064325;28;20070;-55
2023/06/09 00:16:19;;;;;;;9.88;7.70;;;21.20;77.90;;;;;;5063976;28;20094;-55
2023/06/09 00:18:45;;;;;;;8.80;7.90;;;21.20;77.80;;;;;;5063798;28;20064;-54
2023/06/09 00:21:17;;;;;;;9.23;8.32;;;21.20;77.80;;;;;;5062154;28;20052;-55
2023/06/09 00:23:44;;;;;;;9.68;8.60;;;21.10;77.90;;;;;;5061794;28;20029;-55
2023/06/09 00:26:10;;;;;;;9.52;8.27;;;21.10;77.80;;;;;;5061449;28;20033;-56
2023/06/09 00:28:36;;;;;;;9.88;8.52;;;21.10;77.90;;;;;;5044517;28;20025;-53
2023/06/09 00:31:02;;;;;;;12.65;9.40;;;21.00;78.10;;;;;;5063966;28;20021;-55
2023/06/09 00:33:27;;;;;;;11.57;8.75;;;21.00;78.20;;;;;;5064013;28;20089;-55
2023/06/09 00:35:53;;;;;;;9.05;7.97;;;21.00;78.70;;;;;;5063432;28;20494;-55
2023/06/09 00:38:19;;;;;;;10.13;8.05;;;20.90;79.10;;;;;;5063300;28;20084;-55
2023/06/09 00:40:44;;;;;;;9.63;8.63;;;20.90;79.40;;;;;;5062690;28;20028;-55
2023/06/09 00:43:10;;;;;;;8.70;7.90;;;20.90;79.40;;;;;;5062733;28;20067;-55
2023/06/09 00:45:36;;;;;;;8.73;7.93;;;20.90;79.60;;;;;;5062799;28;20029;-56
2023/06/09 00:48:02;;;;;;;9.63;8.63;;;20.90;79.60;;;;;;5062945;28;20021;-55
2023/06/09 00:50:29;;;;;;;9.32;8.07;;;20.90;79.80;;;;;;5063283;28;20151;-55
2023/06/09 00:52:56;;;;;;;9.77;8.57;;;20.90;80.10;;;;;;5061579;28;20104;-53
2023/06/09 00:55:23;;;;;;;9.45;8.35;;;20.90;80.10;;;;;;5061827;28;20082;-56
2023/06/09 00:57:55;;;;;;;9.63;8.65;;;20.90;80.20;;;;;;5062226;28;20029;-54
2023/06/09 01:00:25;;;;;;;9.85;8.57;;;20.90;80.20;;;;;;5062255;28;20044;-56
2023/06/09 01:02:52;;;;;;;9.52;8.63;;;20.90;80.30;;;;;;5063138;28;20029;-56
2023/06/09 01:05:18;;;;;;;9.02;8.13;;;20.90;80.20;;;;;;5062939;28;20040;-56
2023/06/09 01:08:16;;;;;;;9.02;8.10;;;20.90;80.30;;;;;;5061717;28;20074;-56
2023/06/09 01:10:52;;;;;;;9.40;8.43;;;20.90;80.30;;;;;;5022037;28;20029;-56
2023/06/09 01:13:42;;;;;;;9.68;8.68;;;20.90;80.10;;;;;;5061444;28;20029;-55
2023/06/09 01:16:16;;;;;;;10.48;8.75;;;20.80;79.60;;;;;;5060779;28;20116;-56
2023/06/09 01:18:45;;;;;;;10.25;9.07;;;20.70;79.80;;;;;;5059500;28;20041;-56
2023/06/09 01:21:32;;;;;;;11.55;9.35;;;20.60;79.70;;;;;;5059509;28;20472;-56
2023/06/09 01:24:15;;;;;;;10.20;9.18;;;20.60;79.70;;;;;;5058274;28;20468;-56
2023/06/09 01:26:42;;;;;;;14.70;9.40;;;20.60;79.70;;;;;;5058776;28;20055;-55
2023/06/09 01:29:10;;;;;;;16.75;9.77;;;20.50;79.80;;;;;;5040454;28;20477;-56
2023/06/09 01:31:37;;;;;;;14.63;9.48;;;20.50;80.10;;;;;;5058643;28;20498;-56
2023/06/09 01:34:03;;;;;;;13.90;9.95;;;20.40;80.10;;;;;;5058726;28;20029;-56
2023/06/09 01:36:30;;;;;;;11.68;9.70;;;20.40;81.00;;;;;;5057336;28;20017;-56
2023/06/09 01:38:57;;;;;;;13.18;10.60;;;20.40;81.50;;;;;;5058210;28;20025;-56
2023/06/09 01:41:25;;;;;;;10.85;9.70;;;20.40;81.90;;;;;;5058415;28;20025;-56
2023/06/09 01:43:51;;;;;;;10.98;9.82;;;20.40;82.30;;;;;;5058311;28;20427;-56
2023/06/09 01:46:16;;;;;;;10.70;9.60;;;20.40;82.80;;;;;;5057580;28;20085;-55
2023/06/09 01:48:51;;;;;;;10.70;9.60;;;20.40;82.20;;;;;;5057946;28;20086;-56
2023/06/09 01:51:36;;;;;;;10.93;9.80;;;20.40;81.80;;;;;;5058535;28;20029;-55
2023/06/09 01:54:11;;;;;;;10.50;9.50;;;20.40;81.70;;;;;;5058182;28;20146;-56
2023/06/09 01:56:45;;;;;;;10.27;9.18;;;20.40;81.70;;;;;;5058398;28;20029;-55
2023/06/09 01:59:24;;;;;;;10.90;9.23;;;20.40;81.90;;;;;;5059163;28;20100;-56
2023/06/09 02:01:52;;;;;;;11.20;10.00;;;20.40;82.60;;;;;;5057564;28;20036;-56
2023/06/09 02:04:22;;;;;;;11.40;10.30;;;20.40;84.10;;;;;;5057531;28;20025;-55
2023/06/09 02:06:48;;;;;;;11.30;10.30;;;20.40;85.40;;;;;;5056331;28;20424;-56
2023/06/09 02:09:14;;;;;;;11.75;10.55;;;20.40;86.20;;;;;;5057453;28;20075;-55
2023/06/09 02:11:40;;;;;;;11.73;10.52;;;20.50;86.70;;;;;;5059045;28;20017;-56
2023/06/09 02:14:06;;;;;;;11.88;10.68;;;20.50;86.80;;;;;;5058251;28;20388;-54
2023/06/09 02:16:31;;;;;;;13.73;11.20;;;20.60;86.90;;;;;;5056574;28;20469;-55
2023/06/09 02:18:57;;;;;;;12.05;10.85;;;20.60;86.60;;;;;;5057303;28;20531;-55
2023/06/09 02:21:23;;;;;;;12.35;11.15;;;20.60;86.50;;;;;;5039945;28;20047;-56
2023/06/09 02:23:49;;;;;;;11.68;10.23;;;20.60;86.50;;;;;;5056762;28;20025;-55
2023/06/09 02:26:15;;;;;;;11.38;9.43;;;20.60;86.40;;;;;;5057330;28;20077;-56
2023/06/09 02:28:40;;;;;;;11.20;9.65;;;20.70;87.10;;;;;;5058589;28;20071;-56
2023/06/09 02:31:06;;;;;;;10.05;9.07;;;20.70;87.50;;;;;;5058760;28;20021;-56
2023/06/09 02:33:33;;;;;;;10.60;9.10;;;20.70;87.80;;;;;;5057303;28;20110;-56
2023/06/09 02:35:58;;;;;;;8.70;7.80;;;20.70;87.80;;;;;;5057384;28;20044;-55
2023/06/09 02:38:24;;;;;;;8.70;7.47;;;20.80;88.40;;;;;;5057795;28;20025;-56
2023/06/09 02:40:50;;;;;;;10.00;8.00;;;20.80;88.90;;;;;;5057732;28;20480;-56
2023/06/09 02:43:16;;;;;;;9.77;8.77;;;20.90;89.10;;;;;;5039022;28;20025;-56
2023/06/09 02:45:43;;;;;;;8.50;7.65;;;20.90;89.20;;;;;;5058507;28;20028;-56
2023/06/09 02:48:09;;;;;;;8.25;7.00;;;21.00;89.30;;;;;;5039748;28;20425;-56
2023/06/09 02:50:34;;;;;;;9.18;8.27;;;21.00;89.40;;;;;;5056437;28;20110;-56
2023/06/09 02:53:00;;;;;;;9.00;7.32;;;21.10;89.40;;;;;;5056734;28;20078;-56
2023/06/09 02:55:26;;;;;;;9.57;7.60;;;21.10;89.40;;;;;;5057225;28;20028;-56
2023/06/09 02:57:51;;;;;;;8.23;7.10;;;21.20;89.30;;;;;;5056758;28;20250;-56
2023/06/09 03:00:17;;;;;;;9.05;7.38;;;21.30;89.40;;;;;;5057763;28;20535;-56
2023/06/09 03:02:45;;;;;;;9.70;7.47;;;21.30;89.30;;;;;;5038814;28;20029;-56
2023/06/09 03:05:11;;;;;;;8.60;6.90;;;21.40;89.30;;;;;;5057184;28;20032;-56
2023/06/09 03:07:36;;;;;;;8.77;7.40;;;21.40;89.50;;;;;;5055910;28;20493;-55
2023/06/09 03:10:04;;;;;;;10.25;7.60;;;21.50;89.40;;;;;;5055829;28;20037;-56
2023/06/09 03:12:30;;;;;;;8.35;7.38;;;21.60;89.30;;;;;;5057475;28;20381;-56
2023/06/09 03:14:55;;;;;;;7.90;7.10;;;21.60;89.40;;;;;;5060155;28;20029;-52
2023/06/09 03:17:21;;;;;;;10.98;7.53;;;21.70;89.40;;;;;;5041721;28;20108;-55
2023/06/09 03:19:47;;;;;;;9.65;7.53;;;21.70;89.20;;;;;;5060545;28;20048;-56
2023/06/09 03:22:12;;;;;;;8.13;7.18;;;21.80;89.20;;;;;;5059437;28;20112;-55
2023/06/09 03:24:39;;;;;;;8.68;7.20;;;21.90;89.20;;;;;;5059553;28;20070;-54
2023/06/09 03:27:05;;;;;;;8.27;7.25;;;21.90;89.10;;;;;;5059773;28;20521;-54
2023/06/09 03:29:31;;;;;;;8.88;6.85;;;22.00;89.40;;;;;;5059272;28;20104;-55
2023/06/09 03:31:57;;;;;;;10.85;7.22;;;22.20;90.20;;;;;;5059598;28;20063;-56
2023/06/09 03:34:25;;;;;;;8.85;7.07;;;22.50;90.60;;;;;;5060979;28;20133;-56
2023/06/09 03:36:50;;;;;;;8.20;7.20;;;22.90;90.40;;;;;;5058613;28;20021;-56
2023/06/09 03:39:17;;;;;;;8.52;6.90;;;23.30;89.50;;;;;;5058671;28;20090;-55
2023/06/09 03:41:42;;;;;;;8.30;7.10;;;23.80;87.50;;;;;;5059042;28;20025;-56
2023/06/09 03:44:08;;;;;;;7.10;6.18;;;24.40;85.40;;;;;;5059626;28;20036;-56
2023/06/09 03:46:33;;;;;;;7.47;6.63;;;25.10;82.90;;;;;;5058067;28;20104;-55
2023/06/09 03:48:59;;;;;;;6.93;5.45;;;26.00;80.30;;;;;;5058696;28;20115;-54
2023/06/09 03:51:26;;;;;;;8.25;6.38;;;26.90;77.20;;;;;;5059284;28;20021;-55
2023/06/09 03:53:52;;;;;;;9.25;6.45;;;27.90;74.10;;;;;;5060057;28;20104;-54
2023/06/09 03:56:17;;;;;;;10.60;6.18;;;28.80;71.30;;;;;;5059357;28;20496;-55
2023/06/09 03:58:43;;;;;;;8.13;5.90;;;29.60;69.00;;;;;;5060343;28;20060;-54
2023/06/09 04:01:10;;;;;;;6.72;5.82;;;30.40;66.80;;;;;;5061039;28;20057;-55
2023/06/09 04:03:37;;;;;;;6.85;6.15;;;31.10;64.70;;;;;;5061910;28;20088;-55
2023/06/09 04:06:03;;;;;;;7.50;5.97;;;31.80;62.50;;;;;;5062238;28;20040;-54
2023/06/09 04:08:29;;;;;;;9.77;7.38;;;32.40;61.10;;;;;;5062333;28;20088;-56
2023/06/09 04:10:55;;;;;;;8.48;7.55;;;33.00;59.30;;;;;;5063532;28;20033;-56
2023/06/09 04:13:21;;;;;;;10.38;7.88;;;33.50;57.90;;;;;;5064628;28;20392;-54
2023/06/09 04:15:46;;;;;;;14.90;8.35;;;33.90;56.50;;;;;;5064230;28;20515;-56
2023/06/09 04:18:12;;;;;;;11.95;8.07;;;34.20;55.40;;;;;;5065599;28;20036;-55
2023/06/09 04:20:38;;;;;;;9.10;6.95;;;34.50;54.50;;;;;;5065280;28;20096;-56
2023/06/09 04:23:04;;;;;;;9.30;6.60;;;34.80;53.80;;;;;;5065353;28;20040;-56
2023/06/09 04:25:29;;;;;;;9.25;6.82;;;35.10;53.20;;;;;;5065964;28;20032;-56
2023/06/09 04:27:56;;;;;;;7.03;6.07;;;35.30;52.30;;;;;;5064394;28;20033;-55
2023/06/09 04:30:25;;;;;;;10.07;6.88;;;35.40;51.70;;;;;;5064032;28;20252;-55
2023/06/09 04:32:55;;;;;;;9.15;7.00;;;35.40;51.50;;;;;;5063182;28;20075;-56
2023/06/09 04:35:22;;;;;;;9.68;6.93;;;35.40;51.10;;;;;;5064619;28;20067;-56
2023/06/09 04:37:51;;;;;;;7.45;6.75;;;35.60;51.20;;;;;;5062993;28;20021;-56
2023/06/09 04:40:25;;;;;;;8.75;7.82;;;35.90;51.00;;;;;;5064437;28;20049;-56
2023/06/09 04:42:52;;;;;;;12.50;8.70;;;36.20;50.50;;;;;;5065775;28;20037;-53
2023/06/09 04:45:18;;;;;;;10.43;9.35;;;36.50;49.70;;;;;;5065983;28;20029;-56
2023/06/09 04:47:48;;;;;;;12.32;8.02;;;36.70;48.90;;;;;;5066115;28;20036;-54
2023/06/09 04:50:15;;;;;;;;;;;36.80;48.20;;;;;;5065566;28;20033;-54
2023/06/09 04:52:42;;;;;;;14.10;7.70;;;36.80;48.80;;;;;;5065366;28;19979;-55
2023/06/09 04:55:08;;;;;;;11.18;7.78;;;36.90;48.50;;;;;;5065297;28;20112;-55
2023/06/09 04:57:34;;;;;;;8.98;6.82;;;36.90;47.60;;;;;;5065923;28;20055;-55
2023/06/09 05:00:15;;;;;;;11.15;6.22;;;37.10;46.80;;;;;;5066338;28;20086;-55
2023/06/09 05:02:42;;;;;;;6.47;5.78;;;37.20;46.10;;;;;;5066974;28;20482;-53
2023/06/09 05:05:09;;;;;;;6.93;6.18;;;37.50;45.60;;;;;;5067371;28;20116;-55
2023/06/09 05:07:35;;;;;;;8.02;6.40;;;37.90;45.20;;;;;;5068216;28;20498;-55
2023/06/09 05:10:01;;;;;;;6.97;5.65;;;38.20;44.70;;;;;;5069503;28;20027;-55
2023/06/09 05:12:27;;;;;;;6.82;5.03;;;38.50;43.90;;;;;;5069644;28;20025;-55
2023/06/09 05:14:53;;;;;;;8.15;5.35;;;38.80;43.60;;;;;;5070340;28;20051;-54
2023/06/09 05:17:18;;;;;;;9.70;5.25;;;39.00;42.90;;;;;;5067873;28;20112;-56
2023/06/09 05:19:44;;;;;;;5.32;4.63;;;39.20;42.40;;;;;;5066767;28;20151;-56
2023/06/09 05:22:10;;;;;;;9.75;5.18;;;39.20;41.60;;;;;;5063658;28;20033;-55
2023/06/09 05:24:35;;;;;;;7.93;5.60;;;38.90;42.10;;;;;;5064735;28;20475;-55
2023/06/09 05:27:01;;;;;;;6.57;5.55;;;38.40;41.90;;;;;;5064940;28;20601;-56
2023/06/09 05:29:26;;;;;;;9.25;5.15;;;37.70;42.30;;;;;;5062195;28;20112;-55
2023/06/09 05:31:52;;;;;;;8.23;5.82;;;36.90;43.00;;;;;;5060832;28;20029;-55
2023/06/09 05:34:18;;;;;;;6.47;4.82;;;36.10;43.90;;;;;;5060632;28;20032;-55
2023/06/09 05:36:43;;;;;;;10.90;6.03;;;35.30;44.90;;;;;;5059810;28;20074;-55
2023/06/09 05:39:10;;;;;;;7.63;5.88;;;34.60;45.30;;;;;;5060685;28;20028;-53
2023/06/09 05:41:36;;;;;;;9.30;6.45;;;33.90;46.40;;;;;;5042054;28;20024;-56
2023/06/09 05:44:02;;;;;;;7.25;6.05;;;33.20;47.10;;;;;;5058150;28;20088;-56
2023/06/09 05:46:28;;;;;;;10.63;7.32;;;32.70;47.70;;;;;;5058077;28;20048;-55
2023/06/09 05:48:53;;;;;;;11.02;7.85;;;32.20;48.20;;;;;;5058689;28;20051;-56
2023/06/09 05:51:19;;;;;;;9.57;7.90;;;31.80;48.50;;;;;;5058746;28;20024;-56
2023/06/09 05:53:46;;;;;;;9.82;7.43;;;31.40;48.90;;;;;;5057282;28;20025;-56
2023/06/09 05:56:14;;;;;;;10.05;7.07;;;31.10;49.20;;;;;;5057427;28;20033;-56
2023/06/09 05:58:39;;;;;;;9.55;6.93;;;30.80;49.30;;;;;;5056808;28;20027;-55
2023/06/09 06:01:07;;;;;;;9.07;6.97;;;30.50;49.40;;;;;;5056064;28;20033;-55
2023/06/09 06:03:33;;;;;;;8.70;6.93;;;30.20;49.40;;;;;;5056623;28;20090;-56
2023/06/09 06:05:58;;;;;;;9.05;6.70;;;30.00;49.70;;;;;;5056502;28;20488;-55
2023/06/09 06:08:24;;;;;;;8.95;5.75;;;29.80;49.70;;;;;;5055560;28;20136;-56
2023/06/09 06:10:51;;;;;;;12.32;10.30;;;29.70;49.50;;;;;;5054937;28;20496;-55
2023/06/09 06:13:16;;;;;;;13.05;8.10;;;29.50;50.90;;;;;;5053871;28;20021;-55
2023/06/09 06:15:43;;;;;;;8.68;7.57;;;29.40;52.00;;;;;;5055564;28;20086;-56
2023/06/09 06:18:08;;;;;;;11.15;7.57;;;29.20;52.70;;;;;;5057138;28;20025;-55
2023/06/09 06:20:34;;;;;;;11.07;7.80;;;29.10;53.30;;;;;;5057387;28;20473;-53
2023/06/09 06:23:00;;;;;;;8.05;6.93;;;28.90;53.70;;;;;;5059055;28;20480;-56
2023/06/09 06:25:28;;;;;;;9.02;5.97;;;28.80;54.20;;;;;;5057130;28;20082;-54
2023/06/09 06:27:55;;;;;;;8.57;5.80;;;28.60;54.40;;;;;;5061756;28;20040;-56
2023/06/09 06:30:21;;;;;;;8.45;5.30;;;28.40;55.00;;;;;;5057234;28;20025;-56
2023/06/09 06:32:51;;;;;;;7.90;4.93;;;28.20;55.40;;;;;;5055078;28;20036;-56
2023/06/09 06:35:27;;;;;;;8.02;5.05;;;28.10;55.80;;;;;;5056530;28;20048;-55
2023/06/09 06:37:53;;;;;;;5.68;4.85;;;28.00;55.80;;;;;;5056683;28;20388;-55
2023/06/09 06:40:19;;;;;;;7.82;5.50;;;27.80;56.10;;;;;;5056262;28;20020;-56
2023/06/09 06:42:45;;;;;;;7.45;5.55;;;27.70;56.40;;;;;;5055843;28;20431;-55
2023/06/09 06:45:11;;;;;;;7.22;5.35;;;27.70;57.00;;;;;;5056190;28;20270;-56
2023/06/09 06:47:36;;;;;;;7.78;5.70;;;27.50;57.40;;;;;;5056232;28;20047;-55
2023/06/09 06:50:04;;;;;;;6.82;5.40;;;27.40;57.80;;;;;;5056064;28;20511;-57
2023/06/09 06:52:31;;;;;;;7.40;6.07;;;27.40;58.40;;;;;;5055886;28;20027;-56
2023/06/09 06:54:58;;;;;;;6.88;6.20;;;27.30;58.90;;;;;;5056705;28;20479;-56
2023/06/09 06:57:24;;;;;;;12.13;6.28;;;27.20;59.30;;;;;;5056438;28;20052;-54
2023/06/09 06:59:50;;;;;;;7.95;5.93;;;27.10;59.80;;;;;;5054465;28;20083;-55
2023/06/09 07:02:16;;;;;;;6.95;6.25;;;27.00;60.30;;;;;;5053931;28;20044;-56
2023/06/09 07:04:41;;;;;;;9.10;6.68;;;27.00;60.70;;;;;;5053126;28;20032;-55
2023/06/09 07:07:09;;;;;;;6.65;5.90;;;26.90;61.00;;;;;;5052150;28;20028;-56
2023/06/09 07:09:36;;;;;;;9.45;6.15;;;26.80;61.30;;;;;;5053610;28;20029;-56
2023/06/09 07:12:02;;;;;;;7.63;6.45;;;26.80;61.50;;;;;;5051988;28;20018;-56
2023/06/09 07:14:31;;;;;;;6.60;5.90;;;26.70;62.10;;;;;;5054551;28;20017;-56
2023/06/09 07:16:56;;;;;;;7.07;5.82;;;26.70;61.90;;;;;;5055053;28;20021;-57
2023/06/09 07:19:22;;;;;;;7.15;5.97;;;26.70;61.50;;;;;;5054528;28;20079;-57
2023/06/09 07:21:48;;;;;;;7.53;6.05;;;26.60;61.60;;;;;;5054845;28;20495;-57
2023/06/09 07:24:13;;;;;;;6.60;5.88;;;26.60;61.60;;;;;;5055165;28;20060;-56
2023/06/09 07:26:39;;;;;;;7.20;6.05;;;26.60;61.90;;;;;;5054168;28;20434;-57
2023/06/09 07:29:05;;;;;;;7.90;5.93;;;26.50;62.10;;;;;;5053753;28;20029;-57
2023/06/09 07:31:31;;;;;;;6.90;6.10;;;26.50;62.30;;;;;;5054436;28;20063;-57
2023/06/09 07:33:56;;;;;;;8.85;6.22;;;26.40;62.60;;;;;;5054715;28;20021;-57
2023/06/09 07:36:22;;;;;;;9.73;6.55;;;26.40;62.50;;;;;;5054077;28;20428;-56
2023/06/09 07:38:48;;;;;;;7.05;5.43;;;26.40;62.40;;;;;;5054915;28;20025;-57
2023/06/09 07:41:14;;;;;;;7.45;5.93;;;26.30;62.90;;;;;;5054986;28;20025;-57
2023/06/09 07:43:40;;;;;;;7.63;6.05;;;26.30;62.50;;;;;;5055177;28;20029;-57
2023/06/09 07:46:07;;;;;;;7.55;5.60;;;26.30;62.70;;;;;;5056236;28;20083;-57
2023/06/09 07:48:32;;;;;;;6.20;5.30;;;26.30;62.70;;;;;;5055837;28;20418;-57
2023/06/09 07:50:58;;;;;;;7.15;5.50;;;26.30;62.80;;;;;;5054841;28;20021;-57
2023/06/09 07:53:24;;;;;;;6.47;5.45;;;26.30;63.00;;;;;;5055235;28;20024;-57
2023/06/09 07:55:50;;;;;;;6.15;5.20;;;26.30;62.90;;;;;;5055421;28;20085;-56
2023/06/09 07:58:15;;;;;;;6.82;5.30;;;26.20;62.60;;;;;;5055363;28;20124;-57
2023/06/09 08:00:41;;;;;;;7.07;4.85;;;26.20;62.20;;;;;;5058166;28;20063;-56
2023/06/09 08:03:06;;;;;;;6.72;5.38;;;26.20;62.50;;;;;;5058133;28;20174;-54
2023/06/09 08:05:32;;;;;;;5.65;4.63;;;26.20;62.80;;;;;;5058735;28;20538;-55
2023/06/09 08:08:00;;;;;;;6.65;5.55;;;26.20;62.60;;;;;;5056394;28;20128;-54
2023/06/09 08:10:26;;;;;;;5.47;4.78;;;26.20;62.40;;;;;;5057391;28;20025;-57
2023/06/09 08:12:52;;;;;;;5.18;4.60;;;26.20;62.10;;;;;;5059221;28;20029;-57
2023/06/09 08:15:18;;;;;;;7.13;4.38;;;26.20;61.60;;;;;;5055985;28;20033;-57
2023/06/09 08:17:44;;;;;;;6.63;4.75;;;26.20;61.80;;;;;;5056768;28;20112;-54
2023/06/09 08:20:10;;;;;;;6.68;4.47;;;26.20;61.80;;;;;;5055284;28;20029;-55
2023/06/09 08:22:35;;;;;;;6.57;4.43;;;26.20;61.40;;;;;;5054431;28;20035;-55
2023/06/09 08:25:02;;;;;;;6.95;4.65;;;26.20;60.70;;;;;;5054952;28;20029;-55
2023/06/09 08:27:28;;;;;;;5.95;4.38;;;26.10;60.20;;;;;;5055595;28;20013;-54
2023/06/09 08:29:53;;;;;;;4.70;3.88;;;26.10;60.10;;;;;;5057037;28;20025;-55
2023/06/09 08:32:19;;;;;;;6.13;4.03;;;26.10;59.50;;;;;;5056544;28;20425;-55
2023/06/09 08:34:45;;;;;;;7.13;4.05;;;26.10;59.30;;;;;;5054633;28;20033;-56
2023/06/09 08:37:11;;;;;;;4.28;3.88;;;26.10;58.70;;;;;;5055880;28;20036;-56
2023/06/09 08:39:36;;;;;;;4.95;3.60;;;26.10;58.30;;;;;;5056057;28;20088;-56
2023/06/09 08:42:10;;;;;;;4.25;3.65;;;26.10;57.80;;;;;;5055596;28;20040;-56
2023/06/09 08:44:42;;;;;;;4.95;3.55;;;26.10;57.60;;;;;;5055660;28;20079;-56
2023/06/09 08:47:11;;;;;;;6.53;3.50;;;26.10;57.50;;;;;;5054783;28;20036;-54
2023/06/09 08:49:37;;;;;;;7.68;3.85;;;26.00;57.60;;;;;;5055506;28;20472;-56
2023/06/09 08:52:07;;;;;;;5.57;3.60;;;26.00;57.10;;;;;;5056470;28;20388;-56
2023/06/09 08:54:33;;;;;;;4.80;3.10;;;26.00;56.50;;;;;;5056885;28;20037;-56
2023/06/09 08:56:59;;;;;;;6.43;3.25;;;26.00;56.30;;;;;;5056706;28;20029;-54
2023/06/09 08:59:30;;;;;;;3.70;2.95;;;26.00;55.40;;;;;;5056355;28;20029;-56
2023/06/09 09:01:56;;;;;;;;;;;26.00;54.20;;;;;;5056471;28;20017;-56
2023/06/09 09:04:22;;;;;;;6.40;3.10;;;26.00;54.00;;;;;;5055381;28;19931;-56
2023/06/09 09:06:48;;;;;;;5.90;3.08;;;26.00;54.10;;;;;;5055775;28;20033;-56
2023/06/09 09:09:13;;;;;;;7.93;3.83;;;26.00;54.10;;;;;;5055823;28;20041;-56
2023/06/09 09:11:39;;;;;;;3.92;3.40;;;26.00;52.80;;;;;;5055838;28;20029;-56
2023/06/09 09:14:09;;;;;;;2.83;2.60;;;26.00;52.10;;;;;;5056191;28;20029;-55
2023/06/09 09:16:35;;;;;;;5.13;3.08;;;25.90;51.60;;;;;;5055957;28;20029;-55
2023/06/09 09:19:02;;;;;;;5.28;3.60;;;25.90;51.70;;;;;;5056564;28;20387;-57
2023/06/09 09:21:28;;;;;;;4.38;3.35;;;25.90;51.80;;;;;;5055498;28;20036;-56
2023/06/09 09:23:59;;;;;;;5.55;3.22;;;25.80;51.90;;;;;;5056146;28;20029;-56
2023/06/09 09:26:29;;;;;;;4.88;3.30;;;25.90;52.00;;;;;;5055715;28;20435;-56
2023/06/09 09:28:58;;;;;;;4.97;3.50;;;25.90;51.80;;;;;;5055414;28;20021;-56
2023/06/09 09:31:36;;;;;;;6.93;3.50;;;25.80;51.90;;;;;;5056673;28;20025;-56
2023/06/09 09:34:02;;;;;;;4.22;3.40;;;25.80;52.00;;;;;;5056151;28;20029;-56
2023/06/09 09:36:28;;;;;;;4.45;3.55;;;25.80;52.00;;;;;;5056612;28;20112;-55
2023/06/09 09:39:01;;;;;;;5.28;4.57;;;25.80;52.00;;;;;;5055894;28;20029;-56
2023/06/09 09:41:26;;;;;;;4.13;3.55;;;25.80;52.00;;;;;;5055478;28;20116;-56
2023/06/09 09:43:56;;;;;;;6.38;3.78;;;25.80;51.80;;;;;;5037240;28;20068;-55
2023/06/09 09:46:22;;;;;;;4.45;4.00;;;25.80;51.50;;;;;;5055661;28;20111;-53
2023/06/09 09:48:49;;;;;;;3.88;3.47;;;25.80;51.40;;;;;;5056553;28;20502;-56
2023/06/09 09:51:15;;;;;;;7.50;4.18;;;25.80;51.20;;;;;;5053154;28;20021;-56
2023/06/09 09:53:49;;;;;;;6.45;4.13;;;25.80;51.10;;;;;;5053247;28;20481;-56
2023/06/09 09:56:21;;;;;;;5.30;4.10;;;25.70;50.80;;;;;;5053729;28;20033;-56
2023/06/09 09:58:50;;;;;;;4.93;3.33;;;25.70;52.10;;;;;;5055297;28;20040;-55
2023/06/09 10:01:22;;;;;;;6.22;3.63;;;25.70;51.00;;;;;;5061617;28;20473;-56
2023/06/09 10:03:49;;;;;;;6.03;3.90;;;25.70;51.60;;;;;;5061936;28;20033;-53
2023/06/09 10:06:17;;;;;;;4.20;3.03;;;25.70;51.40;;;;;;5045246;28;20067;-56
2023/06/09 10:08:45;;;;;;;5.93;3.38;;;25.70;51.10;;;;;;5061087;28;20060;-55
2023/06/09 10:11:12;;;;;;;4.72;2.63;;;25.60;50.80;;;;;;5060690;28;20017;-56
2023/06/09 10:13:38;;;;;;;6.45;3.72;;;25.60;50.30;;;;;;5057205;28;20476;-56
2023/06/09 10:16:05;;;;;;;3.97;3.25;;;25.60;50.80;;;;;;5056247;28;20114;-56
2023/06/09 10:18:32;;;;;;;3.60;3.03;;;25.60;51.20;;;;;;5056116;28;20037;-55
2023/06/09 10:20:58;;;;;;;3.50;2.80;;;25.60;51.10;;;;;;5056194;28;20104;-56
2023/06/09 10:23:25;;;;;;;5.40;3.08;;;25.60;51.40;;;;;;5057145;28;20037;-56
2023/06/09 10:25:51;;;;;;;5.72;3.28;;;25.50;51.40;;;;;;5056993;28;20037;-56
2023/06/09 10:28:18;;;;;;;4.82;3.10;;;25.50;50.90;;;;;;5056610;28;20498;-56
2023/06/09 10:30:45;;;;;;;5.68;3.13;;;25.50;50.70;;;;;;5055706;28;20040;-56
2023/06/09 10:33:25;;;;;;;7.38;3.95;;;25.50;50.70;;;;;;5055342;28;20025;-56
2023/06/09 10:35:56;;;;;;;5.47;3.35;;;25.50;50.80;;;;;;5054570;28;20034;-56
2023/06/09 10:38:30;;;;;;;5.30;3.33;;;25.50;51.20;;;;;;5055378;28;20120;-56
2023/06/09 10:41:16;;;;;;;5.60;3.60;;;25.40;50.80;;;;;;5054109;28;20032;-56
2023/06/09 10:43:54;;;;;;;5.03;3.40;;;25.40;50.80;;;;;;5055020;28;20029;-56
2023/06/09 10:46:41;;;;;;;5.35;3.20;;;25.40;50.50;;;;;;5054347;28;20032;-56
2023/06/09 10:49:07;;;;;;;5.97;3.35;;;25.40;50.50;;;;;;5054434;28;20032;-54
2023/06/09 10:51:39;;;;;;;4.40;3.65;;;25.40;50.40;;;;;;5054936;28;20110;-56
2023/06/09 10:54:10;;;;;;;6.13;3.63;;;25.40;50.20;;;;;;5054815;28;20021;-56
2023/06/09 10:56:40;;;;;;;5.90;3.60;;;25.40;49.80;;;;;;5054315;28;20025;-56
2023/06/09 10:59:26;;;;;;;5.00;3.25;;;25.40;49.70;;;;;;5052862;28;20037;-56
2023/06/09 11:02:04;;;;;;;4.85;3.35;;;25.40;50.20;;;;;;5052703;28;20120;-55
2023/06/09 11:04:44;;;;;;;4.85;3.85;;;25.40;49.60;;;;;;5052148;28;20484;-56
2023/06/09 11:07:12;;;;;;;4.97;3.92;;;25.40;49.60;;;;;;5052048;28;20049;-54
2023/06/09 11:09:37;;;;;;;6.65;3.67;;;25.40;49.90;;;;;;5051198;28;20428;-56
2023/06/09 11:12:03;;;;;;;5.25;3.58;;;25.40;50.10;;;;;;5051252;28;20036;-56
2023/06/09 11:14:45;;;;;;;5.28;4.18;;;25.40;50.10;;;;;;5050289;28;20029;-55
2023/06/09 11:17:29;;;;;;;9.25;3.83;;;25.40;50.00;;;;;;5052592;28;20025;-56
2023/06/09 11:20:09;;;;;;;6.75;3.92;;;25.40;50.10;;;;;;5051674;28;20037;-57
2023/06/09 11:22:59;;;;;;;5.30;3.83;;;25.40;50.10;;;;;;5051418;28;20503;-56
2023/06/09 11:25:26;;;;;;;6.43;3.63;;;25.40;49.80;;;;;;5053277;28;20055;-56
2023/06/09 11:27:54;;;;;;;5.35;3.90;;;25.40;49.80;;;;;;5055899;28;20036;-56
2023/06/09 11:30:24;;;;;;;5.28;3.22;;;25.30;49.90;;;;;;5050329;28;20029;-54
2023/06/09 11:32:53;;;;;;;4.57;3.33;;;25.40;50.00;;;;;;5050775;28;20538;-56
2023/06/09 11:35:27;;;;;;;5.75;3.38;;;25.30;50.70;;;;;;5055235;28;20082;-56
2023/06/09 11:37:56;;;;;;;5.57;3.70;;;25.40;51.70;;;;;;5054830;28;20414;-56
2023/06/09 11:40:22;;;;;;;6.43;3.88;;;25.40;51.80;;;;;;5055058;28;20090;-56
2023/06/09 11:42:48;;;;;;;4.55;3.55;;;25.40;50.80;;;;;;5057890;28;20009;-50
2023/06/09 11:45:14;;;;;;;6.05;3.67;;;25.30;50.30;;;;;;5058286;28;20104;-56
2023/06/09 11:47:41;;;;;;;5.40;3.25;;;25.40;50.40;;;;;;5037351;28;20024;-57
2023/06/09 11:50:11;;;;;;;5.70;3.55;;;25.40;50.00;;;;;;5054994;28;20024;-57
2023/06/09 11:52:38;;;;;;;6.45;3.85;;;25.30;49.80;;;;;;5056136;28;20044;-56
2023/06/09 11:55:05;;;;;;;6.00;3.80;;;25.30;49.50;;;;;;5056003;28;20123;-53
2023/06/09 11:57:32;;;;;;;4.22;3.10;;;25.30;49.90;;;;;;5063082;28;20031;-55
2023/06/09 11:59:58;;;;;;;4.85;3.10;;;25.40;50.10;;;;;;5057824;28;20044;-55
2023/06/09 12:02:25;;;;;;;5.60;3.00;;;25.40;49.10;;;;;;5056081;28;20036;-53
2023/06/09 12:04:51;;;;;;;5.35;3.33;;;25.40;47.90;;;;;;5057291;28;20057;-57
2023/06/09 12:07:18;;;;;;;4.75;3.20;;;25.40;47.40;;;;;;5039486;28;20053;-56
2023/06/09 12:09:45;;;;;;;4.57;3.20;;;25.50;47.50;;;;;;5056911;28;20078;-55
2023/06/09 12:12:11;;;;;;;6.68;3.30;;;25.50;46.70;;;;;;5057417;28;20032;-56
2023/06/09 12:14:40;;;;;;;5.07;3.00;;;25.60;47.10;;;;;;5057597;28;20029;-56
2023/06/09 12:17:06;;;;;;;3.83;2.97;;;25.60;47.10;;;;;;5057585;28;20550;-54
2023/06/09 12:19:32;;;;;;;5.63;3.17;;;25.60;47.40;;;;;;5057797;28;20032;-56
2023/06/09 12:21:57;;;;;;;4.82;3.45;;;25.60;47.70;;;;;;5054891;28;20017;-56
2023/06/09 12:24:25;;;;;;;6.13;3.50;;;25.60;47.80;;;;;;5056606;28;20029;-56
2023/06/09 12:26:51;;;;;;;5.45;3.47;;;25.60;48.40;;;;;;5055285;28;20135;-56
2023/06/09 12:29:24;;;;;;;5.47;3.35;;;25.50;48.60;;;;;;5055553;28;20067;-56
2023/06/09 12:31:50;;;;;;;5.50;3.53;;;25.50;49.30;;;;;;5055433;28;20397;-56
2023/06/09 12:34:28;;;;;;;5.97;3.40;;;25.50;50.10;;;;;;5054802;28;20028;-56
2023/06/09 12:36:54;;;;;;;5.88;3.15;;;25.50;50.00;;;;;;5053090;28;20039;-54
2023/06/09 12:39:21;;;;;;;7.55;3.30;;;25.40;49.50;;;;;;5053954;28;20048;-55
2023/06/09 12:41:47;;;;;;;4.25;2.78;;;25.40;49.90;;;;;;5052849;28;20100;-55
2023/06/09 12:44:23;;;;;;;4.20;3.10;;;25.40;50.40;;;;;;5053313;28;20484;-54
2023/06/09 12:46:55;;;;;;;5.55;3.33;;;25.40;49.90;;;;;;5052765;28;20036;-55
2023/06/09 12:49:31;;;;;;;4.50;3.40;;;25.40;49.70;;;;;;5054285;28;20013;-54